sensor_id;sensor_type;location;lat;lon;timestamp;P1;durP1;ratioP1;P2;durP2;ratioP2
38717;SDS011;24468;52.128;9.278;2023-04-01T00:00:17;2.25;;;0.50;;
38717;SDS011;24468;52.128;9.278;2023-04-01T00:02:44;1.35;;;0.60;;
38717;SDS011;24468;52.128;9.278;2023-04-01T00:05:11;1.77;;;0.50;;
38717;SDS011;24468;52.128;9.278;2023-04-01T00:07:37;1.05;;;0.70;;
38717;SDS011;24468;52.128;9.278;2023-04-01T00:10:04;4.63;;;0.85;;
38717;SDS011;24468;52.128;9.278;2023-04-01T00:12:32;4.85;;;0.77;;
38717;SDS011;24468;52.128;9.278;2023-04-01T00:14:58;1.95;;;0.50;;
38717;SDS011;24468;52.128;9.278;2023-04-01T00:17:24;1.33;;;0.50;;
38717;SDS011;24468;52.128;9.278;2023-04-01T00:19:49;1.70;;;0.50;;
38717;SDS011;24468;52.128;9.278;2023-04-01T00:22:15;2.97;;;0.82;;
38717;SDS011;24468;52.128;9.278;2023-04-01T00:24:41;2.53;;;0.70;;
38717;SDS011;24468;52.128;9.278;2023-04-01T00:27:07;3.08;;;0.60;;
38717;SDS011;24468;52.128;9.278;2023-04-01T00:29:33;3.50;;;0.47;;
38717;SDS011;24468;52.128;9.278;2023-04-01T00:31:59;1.05;;;0.57;;
38717;SDS011;24468;52.128;9.278;2023-04-01T00:34:25;2.40;;;1.00;;
38717;SDS011;24468;52.128;9.278;2023-04-01T00:36:51;5.38;;;0.47;;
38717;SDS011;24468;52.128;9.278;2023-04-01T00:39:17;0.70;;;0.38;;
38717;SDS011;24468;52.128;9.278;2023-04-01T00:41:44;2.53;;;0.40;;
38717;SDS011;24468;52.128;9.278;2023-04-01T00:44:20;1.35;;;0.25;;
38717;SDS011;24468;52.128;9.278;2023-04-01T00:46:49;2.10;;;0.30;;
38717;SDS011;24468;52.128;9.278;2023-04-01T00:49:15;1.58;;;0.57;;
38717;SDS011;24468;52.128;9.278;2023-04-01T00:51:45;3.53;;;0.60;;
38717;SDS011;24468;52.128;9.278;2023-04-01T00:54:15;3.00;;;0.50;;
38717;SDS011;24468;52.128;9.278;2023-04-01T00:56:51;2.72;;;0.25;;
38717;SDS011;24468;52.128;9.278;2023-04-01T00:59:25;2.45;;;0.65;;
38717;SDS011;24468;52.128;9.278;2023-04-01T01:01:57;4.78;;;0.50;;
38717;SDS011;24468;52.128;9.278;2023-04-01T01:04:27;0.85;;;0.50;;
38717;SDS011;24468;52.128;9.278;2023-04-01T01:07:17;1.02;;;0.47;;
38717;SDS011;24468;52.128;9.278;2023-04-01T01:13:22;0.80;;;0.75;;
38717;SDS011;24468;52.128;9.278;2023-04-01T01:16:05;0.47;;;0.22;;
38717;SDS011;24468;52.128;9.278;2023-04-01T01:18:52;2.72;;;0.63;;
38717;SDS011;24468;52.128;9.278;2023-04-01T01:21:56;1.75;;;0.50;;
38717;SDS011;24468;52.128;9.278;2023-04-01T01:27:52;1.35;;;0.63;;
38717;SDS011;24468;52.128;9.278;2023-04-01T01:36:47;0.90;;;0.20;;
38717;SDS011;24468;52.128;9.278;2023-04-01T01:39:18;3.38;;;0.60;;
38717;SDS011;24468;52.128;9.278;2023-04-01T01:41:45;5.00;;;1.30;;
38717;SDS011;24468;52.128;9.278;2023-04-01T01:44:14;2.33;;;0.40;;
38717;SDS011;24468;52.128;9.278;2023-04-01T01:46:42;3.13;;;0.73;;
38717;SDS011;24468;52.128;9.278;2023-04-01T01:49:10;0.63;;;0.30;;
38717;SDS011;24468;52.128;9.278;2023-04-01T01:51:38;2.92;;;0.63;;
38717;SDS011;24468;52.128;9.278;2023-04-01T01:54:04;3.33;;;1.10;;
38717;SDS011;24468;52.128;9.278;2023-04-01T01:56:30;0.88;;;0.20;;
38717;SDS011;24468;52.128;9.278;2023-04-01T01:59:02;2.22;;;0.57;;
38717;SDS011;24468;52.128;9.278;2023-04-01T02:01:33;0.45;;;0.20;;
38717;SDS011;24468;52.128;9.278;2023-04-01T02:06:30;0.88;;;0.50;;
38717;SDS011;24468;52.128;9.278;2023-04-01T02:09:00;1.95;;;0.50;;
38717;SDS011;24468;52.128;9.278;2023-04-01T02:11:30;1.70;;;0.30;;
38717;SDS011;24468;52.128;9.278;2023-04-01T02:14:11;3.58;;;0.60;;
38717;SDS011;24468;52.128;9.278;2023-04-01T02:16:57;1.00;;;0.17;;
38717;SDS011;24468;52.128;9.278;2023-04-01T02:19:36;0.73;;;0.25;;
38717;SDS011;24468;52.128;9.278;2023-04-01T02:22:07;0.75;;;0.40;;
38717;SDS011;24468;52.128;9.278;2023-04-01T02:24:38;0.85;;;0.20;;
38717;SDS011;24468;52.128;9.278;2023-04-01T02:27:06;2.53;;;0.65;;
38717;SDS011;24468;52.128;9.278;2023-04-01T02:29:32;1.45;;;0.32;;
38717;SDS011;24468;52.128;9.278;2023-04-01T02:31:58;1.63;;;0.60;;
38717;SDS011;24468;52.128;9.278;2023-04-01T02:34:25;2.03;;;0.30;;
38717;SDS011;24468;52.128;9.278;2023-04-01T02:36:51;2.50;;;0.75;;
38717;SDS011;24468;52.128;9.278;2023-04-01T02:39:17;1.27;;;0.30;;
38717;SDS011;24468;52.128;9.278;2023-04-01T02:41:43;1.33;;;0.60;;
38717;SDS011;24468;52.128;9.278;2023-04-01T02:44:11;2.17;;;0.50;;
38717;SDS011;24468;52.128;9.278;2023-04-01T02:46:39;0.47;;;0.20;;
38717;SDS011;24468;52.128;9.278;2023-04-01T02:49:05;3.38;;;0.60;;
38717;SDS011;24468;52.128;9.278;2023-04-01T02:51:31;1.50;;;0.32;;
38717;SDS011;24468;52.128;9.278;2023-04-01T02:53:58;1.23;;;0.30;;
38717;SDS011;24468;52.128;9.278;2023-04-01T02:56:23;0.85;;;0.20;;
38717;SDS011;24468;52.128;9.278;2023-04-01T02:58:49;2.55;;;0.20;;
38717;SDS011;24468;52.128;9.278;2023-04-01T03:01:15;1.40;;;0.30;;
38717;SDS011;24468;52.128;9.278;2023-04-01T03:03:41;2.67;;;0.20;;
38717;SDS011;24468;52.128;9.278;2023-04-01T03:06:07;1.85;;;0.20;;
38717;SDS011;24468;52.128;9.278;2023-04-01T03:08:35;2.97;;;0.40;;
38717;SDS011;24468;52.128;9.278;2023-04-01T03:11:01;0.32;;;0.20;;
38717;SDS011;24468;52.128;9.278;2023-04-01T03:13:26;0.38;;;0.30;;
38717;SDS011;24468;52.128;9.278;2023-04-01T03:15:52;2.67;;;0.57;;
38717;SDS011;24468;52.128;9.278;2023-04-01T03:18:18;1.02;;;0.20;;
38717;SDS011;24468;52.128;9.278;2023-04-01T03:20:44;0.63;;;0.20;;
38717;SDS011;24468;52.128;9.278;2023-04-01T03:23:10;1.88;;;0.28;;
38717;SDS011;24468;52.128;9.278;2023-04-01T03:25:35;0.80;;;0.40;;
38717;SDS011;24468;52.128;9.278;2023-04-01T03:28:01;0.30;;;0.10;;
38717;SDS011;24468;52.128;9.278;2023-04-01T03:30:27;2.75;;;0.70;;
38717;SDS011;24468;52.128;9.278;2023-04-01T03:32:54;3.15;;;0.35;;
38717;SDS011;24468;52.128;9.278;2023-04-01T03:35:20;0.55;;;0.20;;
38717;SDS011;24468;52.128;9.278;2023-04-01T03:37:46;1.58;;;0.32;;
38717;SDS011;24468;52.128;9.278;2023-04-01T03:40:11;1.52;;;0.45;;
38717;SDS011;24468;52.128;9.278;2023-04-01T03:42:37;1.13;;;0.63;;
38717;SDS011;24468;52.128;9.278;2023-04-01T03:45:03;1.35;;;0.47;;
38717;SDS011;24468;52.128;9.278;2023-04-01T03:47:30;0.30;;;0.20;;
38717;SDS011;24468;52.128;9.278;2023-04-01T03:49:56;1.52;;;0.80;;
38717;SDS011;24468;52.128;9.278;2023-04-01T03:52:21;0.82;;;0.30;;
38717;SDS011;24468;52.128;9.278;2023-04-01T03:54:47;2.75;;;0.40;;
38717;SDS011;24468;52.128;9.278;2023-04-01T03:57:12;1.50;;;0.55;;
38717;SDS011;24468;52.128;9.278;2023-04-01T03:59:38;1.35;;;0.30;;
38717;SDS011;24468;52.128;9.278;2023-04-01T04:02:03;0.93;;;0.40;;
38717;SDS011;24468;52.128;9.278;2023-04-01T04:04:29;0.82;;;0.20;;
38717;SDS011;24468;52.128;9.278;2023-04-01T04:06:55;0.43;;;0.10;;
38717;SDS011;24468;52.128;9.278;2023-04-01T04:09:21;0.32;;;0.32;;
38717;SDS011;24468;52.128;9.278;2023-04-01T04:11:47;1.00;;;0.30;;
38717;SDS011;24468;52.128;9.278;2023-04-01T04:14:14;0.52;;;0.47;;
38717;SDS011;24468;52.128;9.278;2023-04-01T04:16:39;1.00;;;0.22;;
38717;SDS011;24468;52.128;9.278;2023-04-01T04:19:05;0.93;;;0.40;;
38717;SDS011;24468;52.128;9.278;2023-04-01T04:21:30;1.25;;;0.30;;
38717;SDS011;24468;52.128;9.278;2023-04-01T04:23:58;1.38;;;0.28;;
38717;SDS011;24468;52.128;9.278;2023-04-01T04:26:25;1.25;;;0.30;;
38717;SDS011;24468;52.128;9.278;2023-04-01T04:28:51;1.92;;;0.50;;
38717;SDS011;24468;52.128;9.278;2023-04-01T04:31:20;2.50;;;0.30;;
38717;SDS011;24468;52.128;9.278;2023-04-01T04:33:47;3.28;;;1.20;;
38717;SDS011;24468;52.128;9.278;2023-04-01T04:36:13;2.72;;;0.63;;
38717;SDS011;24468;52.128;9.278;2023-04-01T04:38:39;0.55;;;0.20;;
38717;SDS011;24468;52.128;9.278;2023-04-01T04:41:08;1.25;;;0.20;;
38717;SDS011;24468;52.128;9.278;2023-04-01T04:43:38;0.45;;;0.10;;
38717;SDS011;24468;52.128;9.278;2023-04-01T04:46:06;2.25;;;0.40;;
38717;SDS011;24468;52.128;9.278;2023-04-01T04:48:33;2.08;;;0.63;;
38717;SDS011;24468;52.128;9.278;2023-04-01T04:50:58;3.22;;;0.40;;
38717;SDS011;24468;52.128;9.278;2023-04-01T04:53:24;0.80;;;0.80;;
38717;SDS011;24468;52.128;9.278;2023-04-01T04:55:51;2.20;;;0.35;;
38717;SDS011;24468;52.128;9.278;2023-04-01T04:58:17;2.38;;;0.20;;
38717;SDS011;24468;52.128;9.278;2023-04-01T05:00:43;1.48;;;0.73;;
38717;SDS011;24468;52.128;9.278;2023-04-01T05:03:09;3.65;;;0.75;;
38717;SDS011;24468;52.128;9.278;2023-04-01T05:05:35;0.93;;;0.70;;
38717;SDS011;24468;52.128;9.278;2023-04-01T05:08:01;1.40;;;0.60;;
38717;SDS011;24468;52.128;9.278;2023-04-01T05:10:26;1.17;;;0.50;;
38717;SDS011;24468;52.128;9.278;2023-04-01T05:12:52;0.95;;;0.40;;
38717;SDS011;24468;52.128;9.278;2023-04-01T05:15:17;1.42;;;0.30;;
38717;SDS011;24468;52.128;9.278;2023-04-01T05:17:43;2.90;;;0.43;;
38717;SDS011;24468;52.128;9.278;2023-04-01T05:20:10;0.60;;;0.30;;
38717;SDS011;24468;52.128;9.278;2023-04-01T05:22:37;1.50;;;0.60;;
38717;SDS011;24468;52.128;9.278;2023-04-01T05:25:03;0.90;;;0.35;;
38717;SDS011;24468;52.128;9.278;2023-04-01T05:27:29;1.65;;;0.43;;
38717;SDS011;24468;52.128;9.278;2023-04-01T05:29:55;1.15;;;0.20;;
38717;SDS011;24468;52.128;9.278;2023-04-01T05:32:21;0.93;;;0.32;;
38717;SDS011;24468;52.128;9.278;2023-04-01T05:34:46;1.00;;;0.40;;
38717;SDS011;24468;52.128;9.278;2023-04-01T05:37:16;0.52;;;0.45;;
38717;SDS011;24468;52.128;9.278;2023-04-01T05:39:42;0.85;;;0.30;;
38717;SDS011;24468;52.128;9.278;2023-04-01T05:42:07;1.30;;;0.70;;
38717;SDS011;24468;52.128;9.278;2023-04-01T05:44:33;0.30;;;0.15;;
38717;SDS011;24468;52.128;9.278;2023-04-01T05:47:00;0.63;;;0.32;;
38717;SDS011;24468;52.128;9.278;2023-04-01T05:49:26;2.22;;;0.40;;
38717;SDS011;24468;52.128;9.278;2023-04-01T05:51:51;0.32;;;0.20;;
38717;SDS011;24468;52.128;9.278;2023-04-01T05:54:17;0.90;;;0.20;;
38717;SDS011;24468;52.128;9.278;2023-04-01T05:56:44;1.73;;;0.32;;
38717;SDS011;24468;52.128;9.278;2023-04-01T05:59:10;0.77;;;0.17;;
38717;SDS011;24468;52.128;9.278;2023-04-01T06:01:37;1.25;;;0.47;;
38717;SDS011;24468;52.128;9.278;2023-04-01T06:04:03;1.40;;;0.20;;
38717;SDS011;24468;52.128;9.278;2023-04-01T06:06:29;1.00;;;0.43;;
38717;SDS011;24468;52.128;9.278;2023-04-01T06:08:57;0.20;;;0.10;;
38717;SDS011;24468;52.128;9.278;2023-04-01T06:24:17;0.85;;;0.20;;
38717;SDS011;24468;52.128;9.278;2023-04-01T06:27:07;0.88;;;0.40;;
38717;SDS011;24468;52.128;9.278;2023-04-01T06:30:33;0.90;;;0.50;;
38717;SDS011;24468;52.128;9.278;2023-04-01T06:42:33;1.92;;;1.08;;
38717;SDS011;24468;52.128;9.278;2023-04-01T06:44:57;1.75;;;0.85;;
38717;SDS011;24468;52.128;9.278;2023-04-01T06:56:31;1.98;;;0.65;;
38717;SDS011;24468;52.128;9.278;2023-04-01T06:59:07;1.75;;;0.30;;
38717;SDS011;24468;52.128;9.278;2023-04-01T07:01:49;1.15;;;0.50;;
38717;SDS011;24468;52.128;9.278;2023-04-01T07:07:05;1.23;;;0.57;;
38717;SDS011;24468;52.128;9.278;2023-04-01T07:10:00;0.93;;;0.30;;
38717;SDS011;24468;52.128;9.278;2023-04-01T07:12:43;0.80;;;0.10;;
38717;SDS011;24468;52.128;9.278;2023-04-01T07:15:22;1.08;;;0.45;;
38717;SDS011;24468;52.128;9.278;2023-04-01T07:17:56;2.35;;;1.30;;
38717;SDS011;24468;52.128;9.278;2023-04-01T07:20:31;1.23;;;0.47;;
38717;SDS011;24468;52.128;9.278;2023-04-01T07:23:04;1.48;;;0.30;;
38717;SDS011;24468;52.128;9.278;2023-04-01T07:25:38;1.73;;;0.38;;
38717;SDS011;24468;52.128;9.278;2023-04-01T07:28:13;0.55;;;0.20;;
38717;SDS011;24468;52.128;9.278;2023-04-01T07:30:57;0.57;;;0.10;;
38717;SDS011;24468;52.128;9.278;2023-04-01T07:34:08;0.68;;;0.10;;
38717;SDS011;24468;52.128;9.278;2023-04-01T07:39:55;2.13;;;0.30;;
38717;SDS011;24468;52.128;9.278;2023-04-01T07:43:11;0.43;;;0.20;;
38717;SDS011;24468;52.128;9.278;2023-04-01T07:48:54;0.55;;;0.40;;
38717;SDS011;24468;52.128;9.278;2023-04-01T07:54:13;2.53;;;0.40;;
38717;SDS011;24468;52.128;9.278;2023-04-01T07:57:49;2.17;;;0.65;;
38717;SDS011;24468;52.128;9.278;2023-04-01T08:02:38;3.53;;;0.30;;
38717;SDS011;24468;52.128;9.278;2023-04-01T08:05:22;0.68;;;0.28;;
38717;SDS011;24468;52.128;9.278;2023-04-01T08:13:34;0.47;;;0.22;;
38717;SDS011;24468;52.128;9.278;2023-04-01T08:16:39;0.55;;;0.38;;
38717;SDS011;24468;52.128;9.278;2023-04-01T08:19:54;1.13;;;0.20;;
38717;SDS011;24468;52.128;9.278;2023-04-01T08:25:30;0.70;;;0.10;;
38717;SDS011;24468;52.128;9.278;2023-04-01T08:28:09;1.35;;;0.20;;
38717;SDS011;24468;52.128;9.278;2023-04-01T08:30:45;0.80;;;0.40;;
38717;SDS011;24468;52.128;9.278;2023-04-01T08:35:51;0.55;;;0.30;;
38717;SDS011;24468;52.128;9.278;2023-04-01T08:38:33;2.00;;;0.40;;
38717;SDS011;24468;52.128;9.278;2023-04-01T08:41:28;0.10;;;0.10;;
38717;SDS011;24468;52.128;9.278;2023-04-01T08:44:32;3.53;;;0.50;;
38717;SDS011;24468;52.128;9.278;2023-04-01T08:47:40;1.35;;;0.20;;
38717;SDS011;24468;52.128;9.278;2023-04-01T08:53:24;1.38;;;0.50;;
38717;SDS011;24468;52.128;9.278;2023-04-01T08:59:23;2.72;;;0.65;;
38717;SDS011;24468;52.128;9.278;2023-04-01T09:07:57;1.33;;;0.20;;
38717;SDS011;24468;52.128;9.278;2023-04-01T09:10:49;0.85;;;0.00;;
38717;SDS011;24468;52.128;9.278;2023-04-01T09:13:31;0.73;;;0.28;;
38717;SDS011;24468;52.128;9.278;2023-04-01T09:22:35;1.23;;;0.08;;
38717;SDS011;24468;52.128;9.278;2023-04-01T09:25:15;0.15;;;0.05;;
38717;SDS011;24468;52.128;9.278;2023-04-01T09:28:19;0.80;;;0.45;;
38717;SDS011;24468;52.128;9.278;2023-04-01T09:34:07;0.45;;;0.10;;
38717;SDS011;24468;52.128;9.278;2023-04-01T09:41:56;0.65;;;0.20;;
38717;SDS011;24468;52.128;9.278;2023-04-01T09:53:23;1.48;;;0.50;;
38717;SDS011;24468;52.128;9.278;2023-04-01T09:59:15;1.45;;;0.13;;
38717;SDS011;24468;52.128;9.278;2023-04-01T10:02:33;0.32;;;0.10;;
38717;SDS011;24468;52.128;9.278;2023-04-01T10:06:10;1.20;;;0.60;;
38717;SDS011;24468;52.128;9.278;2023-04-01T10:15:56;2.05;;;0.52;;
38717;SDS011;24468;52.128;9.278;2023-04-01T10:19:06;1.38;;;0.40;;
38717;SDS011;24468;52.128;9.278;2023-04-01T10:22:31;0.65;;;0.40;;
38717;SDS011;24468;52.128;9.278;2023-04-01T10:28:50;1.20;;;0.85;;
38717;SDS011;24468;52.128;9.278;2023-04-01T10:31:47;1.38;;;0.52;;
38717;SDS011;24468;52.128;9.278;2023-04-01T10:38:06;1.80;;;0.40;;
38717;SDS011;24468;52.128;9.278;2023-04-01T10:45:03;0.68;;;0.30;;
38717;SDS011;24468;52.128;9.278;2023-04-01T10:48:08;1.23;;;0.50;;
38717;SDS011;24468;52.128;9.278;2023-04-01T11:00:39;0.50;;;0.20;;
38717;SDS011;24468;52.128;9.278;2023-04-01T11:06:39;1.02;;;0.45;;
38717;SDS011;24468;52.128;9.278;2023-04-01T11:17:17;1.42;;;0.22;;
38717;SDS011;24468;52.128;9.278;2023-04-01T11:26:26;0.95;;;0.40;;
38717;SDS011;24468;52.128;9.278;2023-04-01T11:37:24;1.00;;;0.40;;
38717;SDS011;24468;52.128;9.278;2023-04-01T11:40:35;1.52;;;0.50;;
38717;SDS011;24468;52.128;9.278;2023-04-01T11:43:15;1.88;;;0.60;;
38717;SDS011;24468;52.128;9.278;2023-04-01T11:45:59;0.65;;;0.28;;
38717;SDS011;24468;52.128;9.278;2023-04-01T12:01:03;1.75;;;0.50;;
38717;SDS011;24468;52.128;9.278;2023-04-01T12:06:40;0.75;;;0.38;;
38717;SDS011;24468;52.128;9.278;2023-04-01T12:12:35;1.25;;;0.38;;
38717;SDS011;24468;52.128;9.278;2023-04-01T12:29:28;0.25;;;0.20;;
38717;SDS011;24468;52.128;9.278;2023-04-01T12:35:45;1.95;;;0.40;;
38717;SDS011;24468;52.128;9.278;2023-04-01T12:44:36;1.63;;;0.40;;
38717;SDS011;24468;52.128;9.278;2023-04-01T12:53:25;0.60;;;0.35;;
38717;SDS011;24468;52.128;9.278;2023-04-01T12:56:14;1.30;;;0.30;;
38717;SDS011;24468;52.128;9.278;2023-04-01T12:59:01;2.15;;;1.90;;
38717;SDS011;24468;52.128;9.278;2023-04-01T13:21:59;0.65;;;0.40;;
38717;SDS011;24468;52.128;9.278;2023-04-01T13:24:50;0.40;;;0.13;;
38717;SDS011;24468;52.128;9.278;2023-04-01T13:27:45;0.35;;;0.35;;
38717;SDS011;24468;52.128;9.278;2023-04-01T13:30:44;3.47;;;2.42;;
38717;SDS011;24468;52.128;9.278;2023-04-01T13:33:39;0.95;;;0.65;;
38717;SDS011;24468;52.128;9.278;2023-04-01T13:36:39;0.20;;;0.20;;
38717;SDS011;24468;52.128;9.278;2023-04-01T13:39:32;0.65;;;0.50;;
38717;SDS011;24468;52.128;9.278;2023-04-01T13:42:26;0.25;;;0.10;;
38717;SDS011;24468;52.128;9.278;2023-04-01T13:54:00;0.52;;;0.20;;
38717;SDS011;24468;52.128;9.278;2023-04-01T13:57:14;0.63;;;0.40;;
38717;SDS011;24468;52.128;9.278;2023-04-01T14:06:34;0.73;;;0.30;;
38717;SDS011;24468;52.128;9.278;2023-04-01T14:12:27;0.47;;;0.30;;
38717;SDS011;24468;52.128;9.278;2023-04-01T14:24:36;0.40;;;0.10;;
38717;SDS011;24468;52.128;9.278;2023-04-01T14:27:39;0.85;;;0.40;;
38717;SDS011;24468;52.128;9.278;2023-04-01T14:30:20;0.43;;;0.28;;
38717;SDS011;24468;52.128;9.278;2023-04-01T14:45:16;1.80;;;0.57;;
38717;SDS011;24468;52.128;9.278;2023-04-01T14:51:22;0.63;;;0.57;;
38717;SDS011;24468;52.128;9.278;2023-04-01T14:56:45;0.40;;;0.20;;
38717;SDS011;24468;52.128;9.278;2023-04-01T15:01:50;0.30;;;0.20;;
38717;SDS011;24468;52.128;9.278;2023-04-01T15:04:44;0.40;;;0.30;;
38717;SDS011;24468;52.128;9.278;2023-04-01T15:13:14;0.40;;;0.10;;
38717;SDS011;24468;52.128;9.278;2023-04-01T15:27:55;0.52;;;0.30;;
38717;SDS011;24468;52.128;9.278;2023-04-01T15:30:36;0.60;;;0.33;;
38717;SDS011;24468;52.128;9.278;2023-04-01T15:36:57;0.63;;;0.50;;
38717;SDS011;24468;52.128;9.278;2023-04-01T15:39:54;0.60;;;0.40;;
38717;SDS011;24468;52.128;9.278;2023-04-01T15:42:47;1.40;;;0.52;;
38717;SDS011;24468;52.128;9.278;2023-04-01T15:51:25;2.35;;;0.32;;
38717;SDS011;24468;52.128;9.278;2023-04-01T15:54:12;0.73;;;0.30;;
38717;SDS011;24468;52.128;9.278;2023-04-01T16:00:04;0.47;;;0.40;;
38717;SDS011;24468;52.128;9.278;2023-04-01T16:05:50;0.77;;;0.40;;
38717;SDS011;24468;52.128;9.278;2023-04-01T16:11:53;0.50;;;0.50;;
38717;SDS011;24468;52.128;9.278;2023-04-01T16:14:45;0.40;;;0.38;;
38717;SDS011;24468;52.128;9.278;2023-04-01T16:23:40;0.40;;;0.20;;
38717;SDS011;24468;52.128;9.278;2023-04-01T16:26:43;0.75;;;0.30;;
38717;SDS011;24468;52.128;9.278;2023-04-01T16:29:26;0.10;;;0.10;;
38717;SDS011;24468;52.128;9.278;2023-04-01T16:32:15;0.28;;;0.28;;
38717;SDS011;24468;52.128;9.278;2023-04-01T16:40:57;0.63;;;0.30;;
38717;SDS011;24468;52.128;9.278;2023-04-01T16:43:56;0.50;;;0.30;;
38717;SDS011;24468;52.128;9.278;2023-04-01T16:54:28;1.25;;;0.73;;
38717;SDS011;24468;52.128;9.278;2023-04-01T17:00:15;0.43;;;0.32;;
38717;SDS011;24468;52.128;9.278;2023-04-01T17:02:49;0.43;;;0.30;;
38717;SDS011;24468;52.128;9.278;2023-04-01T17:11:14;2.78;;;2.00;;
38717;SDS011;24468;52.128;9.278;2023-04-01T17:20:38;0.20;;;0.20;;
38717;SDS011;24468;52.128;9.278;2023-04-01T17:29:15;0.90;;;0.70;;
38717;SDS011;24468;52.128;9.278;2023-04-01T17:32:03;0.90;;;0.50;;
38717;SDS011;24468;52.128;9.278;2023-04-01T17:37:28;0.60;;;0.60;;
38717;SDS011;24468;52.128;9.278;2023-04-01T17:40:41;0.82;;;0.82;;
38717;SDS011;24468;52.128;9.278;2023-04-01T17:46:33;0.45;;;0.40;;
38717;SDS011;24468;52.128;9.278;2023-04-01T17:51:55;0.40;;;0.40;;
38717;SDS011;24468;52.128;9.278;2023-04-01T17:54:49;0.40;;;0.40;;
38717;SDS011;24468;52.128;9.278;2023-04-01T18:01:04;0.30;;;0.20;;
38717;SDS011;24468;52.128;9.278;2023-04-01T18:06:42;2.50;;;0.40;;
38717;SDS011;24468;52.128;9.278;2023-04-01T18:18:26;1.48;;;1.38;;
38717;SDS011;24468;52.128;9.278;2023-04-01T18:21:32;2.20;;;1.10;;
38717;SDS011;24468;52.128;9.278;2023-04-01T18:26:51;1.80;;;1.35;;
38717;SDS011;24468;52.128;9.278;2023-04-01T18:29:50;3.50;;;2.05;;
38717;SDS011;24468;52.128;9.278;2023-04-01T18:32:27;3.20;;;1.95;;
38717;SDS011;24468;52.128;9.278;2023-04-01T18:47:03;1.50;;;1.40;;
38717;SDS011;24468;52.128;9.278;2023-04-01T19:07:26;1.08;;;0.80;;
38717;SDS011;24468;52.128;9.278;2023-04-01T19:10:12;1.10;;;1.00;;
38717;SDS011;24468;52.128;9.278;2023-04-01T19:12:54;2.17;;;1.98;;
38717;SDS011;24468;52.128;9.278;2023-04-01T19:16:02;1.63;;;1.52;;
38717;SDS011;24468;52.128;9.278;2023-04-01T19:21:54;0.65;;;0.65;;
38717;SDS011;24468;52.128;9.278;2023-04-01T19:30:59;0.95;;;0.57;;
38717;SDS011;24468;52.128;9.278;2023-04-01T19:39:54;0.90;;;0.50;;
38717;SDS011;24468;52.128;9.278;2023-04-01T19:42:32;0.63;;;0.63;;
38717;SDS011;24468;52.128;9.278;2023-04-01T19:45:46;0.50;;;0.50;;
38717;SDS011;24468;52.128;9.278;2023-04-01T19:48:44;0.47;;;0.45;;
38717;SDS011;24468;52.128;9.278;2023-04-01T19:54:25;1.15;;;0.75;;
38717;SDS011;24468;52.128;9.278;2023-04-01T20:05:56;0.68;;;0.68;;
38717;SDS011;24468;52.128;9.278;2023-04-01T20:08:58;1.58;;;0.75;;
38717;SDS011;24468;52.128;9.278;2023-04-01T20:12:15;0.52;;;0.52;;
38717;SDS011;24468;52.128;9.278;2023-04-01T20:15:30;3.08;;;1.20;;
38717;SDS011;24468;52.128;9.278;2023-04-01T20:20:59;1.10;;;1.00;;
38717;SDS011;24468;52.128;9.278;2023-04-01T20:26:31;0.85;;;0.70;;
38717;SDS011;24468;52.128;9.278;2023-04-01T20:29:12;1.38;;;1.00;;
38717;SDS011;24468;52.128;9.278;2023-04-01T20:32:06;0.80;;;0.80;;
38717;SDS011;24468;52.128;9.278;2023-04-01T20:37:35;2.28;;;0.70;;
38717;SDS011;24468;52.128;9.278;2023-04-01T20:45:59;2.17;;;1.85;;
38717;SDS011;24468;52.128;9.278;2023-04-01T20:51:53;0.88;;;0.70;;
38717;SDS011;24468;52.128;9.278;2023-04-01T20:54:33;5.10;;;1.20;;
38717;SDS011;24468;52.128;9.278;2023-04-01T20:57:21;1.48;;;1.02;;
38717;SDS011;24468;52.128;9.278;2023-04-01T21:05:22;3.22;;;2.45;;
38717;SDS011;24468;52.128;9.278;2023-04-01T21:08:40;1.02;;;0.98;;
38717;SDS011;24468;52.128;9.278;2023-04-01T21:20:33;1.38;;;1.02;;
38717;SDS011;24468;52.128;9.278;2023-04-01T21:25:56;1.92;;;1.13;;
38717;SDS011;24468;52.128;9.278;2023-04-01T21:35:02;1.00;;;0.70;;
38717;SDS011;24468;52.128;9.278;2023-04-01T21:47:08;0.80;;;0.80;;
38717;SDS011;24468;52.128;9.278;2023-04-01T21:50:28;2.92;;;0.73;;
38717;SDS011;24468;52.128;9.278;2023-04-01T22:03:03;0.88;;;0.80;;
38717;SDS011;24468;52.128;9.278;2023-04-01T22:06:13;0.68;;;0.68;;
38717;SDS011;24468;52.128;9.278;2023-04-01T22:09:58;2.00;;;1.00;;
38717;SDS011;24468;52.128;9.278;2023-04-01T22:12:27;0.93;;;0.68;;
38717;SDS011;24468;52.128;9.278;2023-04-01T22:18:20;0.77;;;0.77;;
38717;SDS011;24468;52.128;9.278;2023-04-01T22:21:13;1.38;;;1.27;;
38717;SDS011;24468;52.128;9.278;2023-04-01T22:26:57;1.98;;;1.75;;
38717;SDS011;24468;52.128;9.278;2023-04-01T22:29:51;2.55;;;1.73;;
38717;SDS011;24468;52.128;9.278;2023-04-01T22:35:49;2.50;;;1.67;;
38717;SDS011;24468;52.128;9.278;2023-04-01T22:41:55;2.78;;;1.50;;
38717;SDS011;24468;52.128;9.278;2023-04-01T22:45:03;2.38;;;2.10;;
38717;SDS011;24468;52.128;9.278;2023-04-01T22:50:46;2.30;;;2.10;;
38717;SDS011;24468;52.128;9.278;2023-04-01T22:56:33;2.28;;;1.80;;
38717;SDS011;24468;52.128;9.278;2023-04-01T22:59:07;2.33;;;2.13;;
38717;SDS011;24468;52.128;9.278;2023-04-01T23:01:58;2.83;;;1.75;;
38717;SDS011;24468;52.128;9.278;2023-04-01T23:04:32;2.35;;;1.90;;
38717;SDS011;24468;52.128;9.278;2023-04-01T23:07:06;2.42;;;2.20;;
38717;SDS011;24468;52.128;9.278;2023-04-01T23:10:14;1.88;;;1.50;;
38717;SDS011;24468;52.128;9.278;2023-04-01T23:12:47;2.60;;;2.15;;
38717;SDS011;24468;52.128;9.278;2023-04-01T23:15:16;3.28;;;1.95;;
38717;SDS011;24468;52.128;9.278;2023-04-01T23:17:55;2.08;;;1.80;;
38717;SDS011;24468;52.128;9.278;2023-04-01T23:29:31;4.15;;;1.88;;
38717;SDS011;24468;52.128;9.278;2023-04-01T23:32:02;5.15;;;1.90;;
38717;SDS011;24468;52.128;9.278;2023-04-01T23:34:37;3.38;;;1.90;;
38717;SDS011;24468;52.128;9.278;2023-04-01T23:37:10;2.85;;;1.80;;
38717;SDS011;24468;52.128;9.278;2023-04-01T23:39:41;2.38;;;2.00;;
38717;SDS011;24468;52.128;9.278;2023-04-01T23:45:04;1.95;;;1.55;;
38717;SDS011;24468;52.128;9.278;2023-04-01T23:47:38;1.80;;;1.40;;
38717;SDS011;24468;52.128;9.278;2023-04-01T23:50:12;2.33;;;1.73;;
38717;SDS011;24468;52.128;9.278;2023-04-01T23:52:52;4.07;;;1.42;;
38717;SDS011;24468;52.128;9.278;2023-04-01T23:55:35;2.38;;;1.58;;
